sensor_id;sensor_type;location;lat;lon;timestamp;P1;durP1;ratioP1;P2;durP2;ratioP2
19903;SDS011;10114;50.970;4.962;2022-10-13T00:02:17;20.63;;;8.75;;
19903;SDS011;10114;50.970;4.962;2022-10-13T00:04:43;21.73;;;8.73;;
19903;SDS011;10114;50.970;4.962;2022-10-13T00:07:09;17.60;;;8.02;;
19903;SDS011;10114;50.970;4.962;2022-10-13T00:09:35;19.42;;;8.18;;
19903;SDS011;10114;50.970;4.962;2022-10-13T00:12:01;17.48;;;7.88;;
19903;SDS011;10114;50.970;4.962;2022-10-13T00:14:27;18.90;;;8.23;;
19903;SDS011;10114;50.970;4.962;2022-10-13T00:16:53;18.00;;;7.72;;
19903;SDS011;10114;50.970;4.962;2022-10-13T00:19:19;17.38;;;8.43;;
19903;SDS011;10114;50.970;4.962;2022-10-13T00:21:45;14.98;;;7.57;;
19903;SDS011;10114;50.970;4.962;2022-10-13T00:24:11;22.00;;;8.57;;
19903;SDS011;10114;50.970;4.962;2022-10-13T00:26:37;15.82;;;8.00;;
19903;SDS011;10114;50.970;4.962;2022-10-13T00:29:03;16.85;;;8.38;;
19903;SDS011;10114;50.970;4.962;2022-10-13T00:31:30;16.95;;;8.13;;
19903;SDS011;10114;50.970;4.962;2022-10-13T00:33:57;22.67;;;8.45;;
19903;SDS011;10114;50.970;4.962;2022-10-13T00:36:23;20.55;;;8.85;;
19903;SDS011;10114;50.970;4.962;2022-10-13T00:38:50;24.17;;;8.63;;
19903;SDS011;10114;50.970;4.962;2022-10-13T00:41:16;22.73;;;8.23;;
19903;SDS011;10114;50.970;4.962;2022-10-13T00:46:14;20.52;;;9.05;;
19903;SDS011;10114;50.970;4.962;2022-10-13T00:48:41;20.23;;;8.93;;
19903;SDS011;10114;50.970;4.962;2022-10-13T00:51:08;20.10;;;8.65;;
19903;SDS011;10114;50.970;4.962;2022-10-13T00:53:35;22.55;;;9.05;;
19903;SDS011;10114;50.970;4.962;2022-10-13T00:56:02;20.50;;;8.30;;
19903;SDS011;10114;50.970;4.962;2022-10-13T00:58:29;16.25;;;8.90;;
19903;SDS011;10114;50.970;4.962;2022-10-13T01:00:57;21.13;;;8.88;;
19903;SDS011;10114;50.970;4.962;2022-10-13T01:03:23;21.20;;;9.23;;
19903;SDS011;10114;50.970;4.962;2022-10-13T01:05:51;21.88;;;8.73;;
19903;SDS011;10114;50.970;4.962;2022-10-13T01:08:18;19.63;;;9.23;;
19903;SDS011;10114;50.970;4.962;2022-10-13T01:18:32;19.08;;;9.80;;
19903;SDS011;10114;50.970;4.962;2022-10-13T01:23:49;19.27;;;8.80;;
19903;SDS011;10114;50.970;4.962;2022-10-13T01:34:15;17.77;;;9.32;;
19903;SDS011;10114;50.970;4.962;2022-10-13T01:39:43;20.50;;;8.77;;
19903;SDS011;10114;50.970;4.962;2022-10-13T01:42:14;17.70;;;8.00;;
19903;SDS011;10114;50.970;4.962;2022-10-13T01:44:46;17.60;;;8.05;;
19903;SDS011;10114;50.970;4.962;2022-10-13T01:47:14;23.70;;;8.98;;
19903;SDS011;10114;50.970;4.962;2022-10-13T01:49:41;22.83;;;8.88;;
19903;SDS011;10114;50.970;4.962;2022-10-13T01:52:10;17.30;;;8.80;;
19903;SDS011;10114;50.970;4.962;2022-10-13T01:54:37;22.13;;;10.23;;
19903;SDS011;10114;50.970;4.962;2022-10-13T01:57:03;20.17;;;9.30;;
19903;SDS011;10114;50.970;4.962;2022-10-13T01:59:30;19.13;;;8.20;;
19903;SDS011;10114;50.970;4.962;2022-10-13T02:02:07;18.25;;;8.70;;
19903;SDS011;10114;50.970;4.962;2022-10-13T02:07:20;17.88;;;8.13;;
19903;SDS011;10114;50.970;4.962;2022-10-13T02:12:36;19.02;;;8.57;;
19903;SDS011;10114;50.970;4.962;2022-10-13T02:15:04;15.68;;;7.45;;
19903;SDS011;10114;50.970;4.962;2022-10-13T02:17:32;21.02;;;8.75;;
19903;SDS011;10114;50.970;4.962;2022-10-13T02:19:59;18.88;;;7.50;;
19903;SDS011;10114;50.970;4.962;2022-10-13T02:22:29;23.02;;;8.90;;
19903;SDS011;10114;50.970;4.962;2022-10-13T02:24:57;22.20;;;9.07;;
19903;SDS011;10114;50.970;4.962;2022-10-13T02:27:23;17.88;;;8.35;;
19903;SDS011;10114;50.970;4.962;2022-10-13T02:29:55;18.67;;;8.82;;
19903;SDS011;10114;50.970;4.962;2022-10-13T02:32:22;25.60;;;8.68;;
19903;SDS011;10114;50.970;4.962;2022-10-13T02:34:48;20.40;;;9.43;;
19903;SDS011;10114;50.970;4.962;2022-10-13T02:37:14;19.60;;;9.82;;
19903;SDS011;10114;50.970;4.962;2022-10-13T02:39:40;16.98;;;8.57;;
19903;SDS011;10114;50.970;4.962;2022-10-13T02:42:06;19.48;;;8.90;;
19903;SDS011;10114;50.970;4.962;2022-10-13T02:44:32;20.13;;;8.80;;
19903;SDS011;10114;50.970;4.962;2022-10-13T02:46:59;18.98;;;9.23;;
19903;SDS011;10114;50.970;4.962;2022-10-13T02:49:25;21.40;;;9.25;;
19903;SDS011;10114;50.970;4.962;2022-10-13T02:51:51;24.67;;;9.55;;
19903;SDS011;10114;50.970;4.962;2022-10-13T02:54:17;23.80;;;9.65;;
19903;SDS011;10114;50.970;4.962;2022-10-13T02:56:43;21.90;;;9.68;;
19903;SDS011;10114;50.970;4.962;2022-10-13T02:59:09;21.00;;;9.05;;
19903;SDS011;10114;50.970;4.962;2022-10-13T03:01:36;25.63;;;10.32;;
19903;SDS011;10114;50.970;4.962;2022-10-13T03:04:05;21.95;;;9.57;;
19903;SDS011;10114;50.970;4.962;2022-10-13T03:06:32;18.05;;;9.27;;
19903;SDS011;10114;50.970;4.962;2022-10-13T03:08:58;17.83;;;9.48;;
19903;SDS011;10114;50.970;4.962;2022-10-13T03:11:24;23.55;;;9.68;;
19903;SDS011;10114;50.970;4.962;2022-10-13T03:13:50;22.85;;;10.20;;
19903;SDS011;10114;50.970;4.962;2022-10-13T03:16:17;18.00;;;9.32;;
19903;SDS011;10114;50.970;4.962;2022-10-13T03:18:43;18.60;;;9.23;;
19903;SDS011;10114;50.970;4.962;2022-10-13T03:21:09;22.92;;;9.23;;
19903;SDS011;10114;50.970;4.962;2022-10-13T03:23:35;23.02;;;10.63;;
19903;SDS011;10114;50.970;4.962;2022-10-13T03:26:01;21.88;;;9.68;;
19903;SDS011;10114;50.970;4.962;2022-10-13T03:28:28;21.30;;;9.60;;
19903;SDS011;10114;50.970;4.962;2022-10-13T03:31:05;22.63;;;9.75;;
19903;SDS011;10114;50.970;4.962;2022-10-13T03:33:31;20.45;;;10.65;;
19903;SDS011;10114;50.970;4.962;2022-10-13T03:36:01;19.67;;;9.23;;
19903;SDS011;10114;50.970;4.962;2022-10-13T03:38:28;20.17;;;9.55;;
19903;SDS011;10114;50.970;4.962;2022-10-13T03:40:54;20.45;;;10.43;;
19903;SDS011;10114;50.970;4.962;2022-10-13T03:43:20;19.08;;;10.20;;
19903;SDS011;10114;50.970;4.962;2022-10-13T03:45:56;19.85;;;9.77;;
19903;SDS011;10114;50.970;4.962;2022-10-13T03:48:22;22.52;;;10.68;;
19903;SDS011;10114;50.970;4.962;2022-10-13T03:50:49;21.02;;;9.18;;
19903;SDS011;10114;50.970;4.962;2022-10-13T03:53:15;22.30;;;11.02;;
19903;SDS011;10114;50.970;4.962;2022-10-13T03:55:41;21.40;;;10.07;;
19903;SDS011;10114;50.970;4.962;2022-10-13T03:58:12;17.67;;;9.48;;
19903;SDS011;10114;50.970;4.962;2022-10-13T04:00:38;20.92;;;10.23;;
19903;SDS011;10114;50.970;4.962;2022-10-13T04:03:04;20.98;;;9.43;;
19903;SDS011;10114;50.970;4.962;2022-10-13T04:05:32;25.10;;;10.07;;
19903;SDS011;10114;50.970;4.962;2022-10-13T04:07:58;27.30;;;10.65;;
19903;SDS011;10114;50.970;4.962;2022-10-13T04:10:25;20.67;;;10.80;;
19903;SDS011;10114;50.970;4.962;2022-10-13T04:12:51;25.75;;;11.75;;
19903;SDS011;10114;50.970;4.962;2022-10-13T04:15:17;23.23;;;10.52;;
19903;SDS011;10114;50.970;4.962;2022-10-13T04:17:43;20.15;;;11.18;;
19903;SDS011;10114;50.970;4.962;2022-10-13T04:20:09;23.60;;;10.73;;
19903;SDS011;10114;50.970;4.962;2022-10-13T04:22:35;25.40;;;11.63;;
19903;SDS011;10114;50.970;4.962;2022-10-13T04:25:01;25.77;;;10.40;;
19903;SDS011;10114;50.970;4.962;2022-10-13T04:27:27;20.30;;;10.25;;
19903;SDS011;10114;50.970;4.962;2022-10-13T04:29:53;26.23;;;10.40;;
19903;SDS011;10114;50.970;4.962;2022-10-13T04:32:19;20.58;;;10.00;;
19903;SDS011;10114;50.970;4.962;2022-10-13T04:34:45;19.27;;;9.52;;
19903;SDS011;10114;50.970;4.962;2022-10-13T04:37:11;22.98;;;9.88;;
19903;SDS011;10114;50.970;4.962;2022-10-13T04:39:37;24.08;;;10.50;;
19903;SDS011;10114;50.970;4.962;2022-10-13T04:42:03;28.38;;;10.40;;
19903;SDS011;10114;50.970;4.962;2022-10-13T04:44:30;19.23;;;9.63;;
19903;SDS011;10114;50.970;4.962;2022-10-13T04:46:56;19.45;;;9.40;;
19903;SDS011;10114;50.970;4.962;2022-10-13T04:49:22;23.63;;;10.15;;
19903;SDS011;10114;50.970;4.962;2022-10-13T04:51:49;18.17;;;9.90;;
19903;SDS011;10114;50.970;4.962;2022-10-13T04:54:15;20.05;;;9.52;;
19903;SDS011;10114;50.970;4.962;2022-10-13T04:56:42;20.83;;;10.48;;
19903;SDS011;10114;50.970;4.962;2022-10-13T04:59:09;21.92;;;10.30;;
19903;SDS011;10114;50.970;4.962;2022-10-13T05:01:35;24.45;;;10.02;;
19903;SDS011;10114;50.970;4.962;2022-10-13T05:04:01;22.20;;;10.02;;
19903;SDS011;10114;50.970;4.962;2022-10-13T05:06:28;24.73;;;11.98;;
19903;SDS011;10114;50.970;4.962;2022-10-13T05:08:55;26.05;;;10.32;;
19903;SDS011;10114;50.970;4.962;2022-10-13T05:11:21;22.48;;;11.45;;
19903;SDS011;10114;50.970;4.962;2022-10-13T05:13:48;20.55;;;9.65;;
19903;SDS011;10114;50.970;4.962;2022-10-13T05:16:15;25.70;;;10.70;;
19903;SDS011;10114;50.970;4.962;2022-10-13T05:18:41;21.27;;;10.38;;
19903;SDS011;10114;50.970;4.962;2022-10-13T05:21:08;20.90;;;10.15;;
19903;SDS011;10114;50.970;4.962;2022-10-13T05:23:34;27.67;;;11.30;;
19903;SDS011;10114;50.970;4.962;2022-10-13T05:26:02;22.00;;;10.77;;
19903;SDS011;10114;50.970;4.962;2022-10-13T05:28:28;23.38;;;9.85;;
19903;SDS011;10114;50.970;4.962;2022-10-13T05:30:54;23.50;;;10.25;;
19903;SDS011;10114;50.970;4.962;2022-10-13T05:33:20;22.85;;;10.70;;
19903;SDS011;10114;50.970;4.962;2022-10-13T05:35:46;20.70;;;10.07;;
19903;SDS011;10114;50.970;4.962;2022-10-13T05:38:12;21.92;;;10.23;;
19903;SDS011;10114;50.970;4.962;2022-10-13T05:40:38;25.80;;;11.18;;
19903;SDS011;10114;50.970;4.962;2022-10-13T05:43:05;24.17;;;10.82;;
19903;SDS011;10114;50.970;4.962;2022-10-13T05:45:31;34.83;;;11.20;;
19903;SDS011;10114;50.970;4.962;2022-10-13T05:47:57;25.38;;;10.77;;
19903;SDS011;10114;50.970;4.962;2022-10-13T05:50:23;23.67;;;11.07;;
19903;SDS011;10114;50.970;4.962;2022-10-13T05:52:49;20.25;;;9.82;;
19903;SDS011;10114;50.970;4.962;2022-10-13T05:55:16;24.05;;;11.20;;
19903;SDS011;10114;50.970;4.962;2022-10-13T05:57:43;24.33;;;10.70;;
19903;SDS011;10114;50.970;4.962;2022-10-13T06:00:12;22.33;;;10.63;;
19903;SDS011;10114;50.970;4.962;2022-10-13T06:02:43;21.48;;;11.10;;
19903;SDS011;10114;50.970;4.962;2022-10-13T06:05:12;24.95;;;10.15;;
19903;SDS011;10114;50.970;4.962;2022-10-13T06:07:39;19.33;;;9.43;;
19903;SDS011;10114;50.970;4.962;2022-10-13T06:10:05;26.38;;;11.60;;
19903;SDS011;10114;50.970;4.962;2022-10-13T06:12:31;22.17;;;10.93;;
19903;SDS011;10114;50.970;4.962;2022-10-13T06:14:57;20.95;;;10.07;;
19903;SDS011;10114;50.970;4.962;2022-10-13T06:17:23;24.95;;;10.50;;
19903;SDS011;10114;50.970;4.962;2022-10-13T06:19:49;21.17;;;10.63;;
19903;SDS011;10114;50.970;4.962;2022-10-13T06:22:15;24.20;;;10.82;;
19903;SDS011;10114;50.970;4.962;2022-10-13T06:24:41;21.40;;;10.38;;
19903;SDS011;10114;50.970;4.962;2022-10-13T06:27:08;19.33;;;9.63;;
19903;SDS011;10114;50.970;4.962;2022-10-13T06:29:34;26.08;;;10.55;;
19903;SDS011;10114;50.970;4.962;2022-10-13T06:32:00;25.67;;;11.10;;
19903;SDS011;10114;50.970;4.962;2022-10-13T06:34:26;21.80;;;10.27;;
19903;SDS011;10114;50.970;4.962;2022-10-13T06:36:52;20.70;;;10.55;;
19903;SDS011;10114;50.970;4.962;2022-10-13T06:39:18;20.80;;;10.23;;
19903;SDS011;10114;50.970;4.962;2022-10-13T06:41:44;22.92;;;10.13;;
19903;SDS011;10114;50.970;4.962;2022-10-13T06:44:10;20.58;;;10.20;;
19903;SDS011;10114;50.970;4.962;2022-10-13T06:46:36;22.60;;;10.40;;
19903;SDS011;10114;50.970;4.962;2022-10-13T06:49:02;26.13;;;11.10;;
19903;SDS011;10114;50.970;4.962;2022-10-13T06:51:28;21.60;;;11.00;;
19903;SDS011;10114;50.970;4.962;2022-10-13T06:53:55;22.40;;;11.00;;
19903;SDS011;10114;50.970;4.962;2022-10-13T06:56:21;20.75;;;9.90;;
19903;SDS011;10114;50.970;4.962;2022-10-13T06:58:48;24.23;;;10.65;;
19903;SDS011;10114;50.970;4.962;2022-10-13T07:01:14;18.70;;;9.43;;
19903;SDS011;10114;50.970;4.962;2022-10-13T07:03:40;24.30;;;9.40;;
19903;SDS011;10114;50.970;4.962;2022-10-13T07:06:06;18.38;;;9.80;;
19903;SDS011;10114;50.970;4.962;2022-10-13T07:08:32;15.90;;;8.65;;
19903;SDS011;10114;50.970;4.962;2022-10-13T07:11:04;19.15;;;9.07;;
19903;SDS011;10114;50.970;4.962;2022-10-13T07:13:30;19.85;;;9.27;;
19903;SDS011;10114;50.970;4.962;2022-10-13T07:15:56;19.95;;;9.15;;
19903;SDS011;10114;50.970;4.962;2022-10-13T07:18:22;18.08;;;8.57;;
19903;SDS011;10114;50.970;4.962;2022-10-13T07:20:48;21.38;;;9.38;;
19903;SDS011;10114;50.970;4.962;2022-10-13T07:23:14;20.50;;;9.57;;
19903;SDS011;10114;50.970;4.962;2022-10-13T07:25:40;19.85;;;9.27;;
19903;SDS011;10114;50.970;4.962;2022-10-13T07:28:06;19.23;;;9.25;;
19903;SDS011;10114;50.970;4.962;2022-10-13T07:30:32;21.63;;;8.85;;
19903;SDS011;10114;50.970;4.962;2022-10-13T07:32:58;18.38;;;8.70;;
19903;SDS011;10114;50.970;4.962;2022-10-13T07:35:24;16.75;;;8.48;;
19903;SDS011;10114;50.970;4.962;2022-10-13T07:37:53;22.73;;;8.93;;
19903;SDS011;10114;50.970;4.962;2022-10-13T07:40:20;17.90;;;9.38;;
19903;SDS011;10114;50.970;4.962;2022-10-13T07:42:46;17.05;;;9.60;;
19903;SDS011;10114;50.970;4.962;2022-10-13T07:45:12;20.75;;;10.05;;
19903;SDS011;10114;50.970;4.962;2022-10-13T07:47:38;25.23;;;10.18;;
19903;SDS011;10114;50.970;4.962;2022-10-13T07:50:04;19.42;;;9.35;;
19903;SDS011;10114;50.970;4.962;2022-10-13T07:52:30;20.40;;;9.90;;
19903;SDS011;10114;50.970;4.962;2022-10-13T07:54:56;20.00;;;9.32;;
19903;SDS011;10114;50.970;4.962;2022-10-13T07:57:25;18.92;;;9.98;;
19903;SDS011;10114;50.970;4.962;2022-10-13T07:59:51;18.40;;;8.88;;
19903;SDS011;10114;50.970;4.962;2022-10-13T08:02:17;21.55;;;9.65;;
19903;SDS011;10114;50.970;4.962;2022-10-13T08:04:43;18.73;;;9.10;;
19903;SDS011;10114;50.970;4.962;2022-10-13T08:07:09;18.30;;;8.55;;
19903;SDS011;10114;50.970;4.962;2022-10-13T08:09:36;19.33;;;8.40;;
19903;SDS011;10114;50.970;4.962;2022-10-13T08:12:02;15.60;;;8.00;;
19903;SDS011;10114;50.970;4.962;2022-10-13T08:14:29;15.88;;;8.45;;
19903;SDS011;10114;50.970;4.962;2022-10-13T08:16:56;16.30;;;8.93;;
19903;SDS011;10114;50.970;4.962;2022-10-13T08:19:22;19.73;;;8.82;;
19903;SDS011;10114;50.970;4.962;2022-10-13T08:21:50;14.85;;;8.75;;
19903;SDS011;10114;50.970;4.962;2022-10-13T08:24:16;25.48;;;8.95;;
19903;SDS011;10114;50.970;4.962;2022-10-13T08:26:44;18.90;;;8.90;;
19903;SDS011;10114;50.970;4.962;2022-10-13T08:29:10;18.70;;;8.98;;
19903;SDS011;10114;50.970;4.962;2022-10-13T08:31:37;17.80;;;8.45;;
19903;SDS011;10114;50.970;4.962;2022-10-13T08:34:03;20.98;;;8.98;;
19903;SDS011;10114;50.970;4.962;2022-10-13T08:36:29;15.52;;;7.72;;
19903;SDS011;10114;50.970;4.962;2022-10-13T08:38:56;21.60;;;7.68;;
19903;SDS011;10114;50.970;4.962;2022-10-13T08:41:23;16.15;;;7.60;;
19903;SDS011;10114;50.970;4.962;2022-10-13T08:43:50;15.18;;;7.55;;
19903;SDS011;10114;50.970;4.962;2022-10-13T08:46:24;15.90;;;7.50;;
19903;SDS011;10114;50.970;4.962;2022-10-13T08:48:51;19.95;;;7.78;;
19903;SDS011;10114;50.970;4.962;2022-10-13T08:51:17;13.88;;;7.90;;
19903;SDS011;10114;50.970;4.962;2022-10-13T08:53:43;16.70;;;7.65;;
19903;SDS011;10114;50.970;4.962;2022-10-13T08:56:23;18.70;;;7.78;;
19903;SDS011;10114;50.970;4.962;2022-10-13T08:58:51;15.43;;;7.60;;
19903;SDS011;10114;50.970;4.962;2022-10-13T09:01:22;16.20;;;7.47;;
19903;SDS011;10114;50.970;4.962;2022-10-13T09:03:56;16.13;;;7.32;;
19903;SDS011;10114;50.970;4.962;2022-10-13T09:06:30;15.23;;;7.25;;
19903;SDS011;10114;50.970;4.962;2022-10-13T09:08:58;17.17;;;8.25;;
19903;SDS011;10114;50.970;4.962;2022-10-13T09:11:28;17.92;;;8.73;;
19903;SDS011;10114;50.970;4.962;2022-10-13T09:13:58;19.20;;;8.20;;
19903;SDS011;10114;50.970;4.962;2022-10-13T09:16:25;14.80;;;6.60;;
19903;SDS011;10114;50.970;4.962;2022-10-13T09:18:51;15.85;;;8.07;;
19903;SDS011;10114;50.970;4.962;2022-10-13T09:21:22;15.93;;;7.72;;
19903;SDS011;10114;50.970;4.962;2022-10-13T09:23:49;18.75;;;8.48;;
19903;SDS011;10114;50.970;4.962;2022-10-13T09:26:20;15.45;;;7.95;;
19903;SDS011;10114;50.970;4.962;2022-10-13T09:28:46;20.55;;;8.60;;
19903;SDS011;10114;50.970;4.962;2022-10-13T09:33:45;18.83;;;8.70;;
19903;SDS011;10114;50.970;4.962;2022-10-13T09:36:12;22.50;;;8.50;;
19903;SDS011;10114;50.970;4.962;2022-10-13T09:38:39;18.52;;;7.63;;
19903;SDS011;10114;50.970;4.962;2022-10-13T09:43:37;15.73;;;7.68;;
19903;SDS011;10114;50.970;4.962;2022-10-13T09:46:16;15.90;;;7.95;;
19903;SDS011;10114;50.970;4.962;2022-10-13T09:48:46;15.55;;;7.43;;
19903;SDS011;10114;50.970;4.962;2022-10-13T09:54:25;17.60;;;7.53;;
19903;SDS011;10114;50.970;4.962;2022-10-13T09:56:53;16.02;;;7.35;;
19903;SDS011;10114;50.970;4.962;2022-10-13T09:59:23;14.35;;;7.32;;
19903;SDS011;10114;50.970;4.962;2022-10-13T10:01:52;21.33;;;7.88;;
19903;SDS011;10114;50.970;4.962;2022-10-13T10:04:21;16.35;;;8.18;;
19903;SDS011;10114;50.970;4.962;2022-10-13T10:06:48;17.08;;;8.68;;
19903;SDS011;10114;50.970;4.962;2022-10-13T10:11:47;15.70;;;8.48;;
19903;SDS011;10114;50.970;4.962;2022-10-13T10:16:56;15.63;;;8.40;;
19903;SDS011;10114;50.970;4.962;2022-10-13T10:19:25;18.73;;;8.52;;
19903;SDS011;10114;50.970;4.962;2022-10-13T10:31:55;19.60;;;8.73;;
19903;SDS011;10114;50.970;4.962;2022-10-13T10:34:36;20.90;;;10.10;;
19903;SDS011;10114;50.970;4.962;2022-10-13T10:37:12;23.50;;;9.23;;
19903;SDS011;10114;50.970;4.962;2022-10-13T10:39:50;17.38;;;8.77;;
19903;SDS011;10114;50.970;4.962;2022-10-13T10:42:19;18.55;;;8.75;;
19903;SDS011;10114;50.970;4.962;2022-10-13T10:44:50;17.00;;;8.40;;
19903;SDS011;10114;50.970;4.962;2022-10-13T10:47:20;16.08;;;8.23;;
19903;SDS011;10114;50.970;4.962;2022-10-13T10:49:48;19.92;;;9.00;;
19903;SDS011;10114;50.970;4.962;2022-10-13T10:52:17;20.77;;;10.02;;
19903;SDS011;10114;50.970;4.962;2022-10-13T10:59:48;18.00;;;8.52;;
19903;SDS011;10114;50.970;4.962;2022-10-13T11:04:53;20.88;;;8.70;;
19903;SDS011;10114;50.970;4.962;2022-10-13T11:14:47;18.98;;;9.85;;
19903;SDS011;10114;50.970;4.962;2022-10-13T11:17:27;48.05;;;26.83;;
19903;SDS011;10114;50.970;4.962;2022-10-13T11:19:54;49.05;;;31.80;;
19903;SDS011;10114;50.970;4.962;2022-10-13T11:22:21;28.20;;;21.00;;
19903;SDS011;10114;50.970;4.962;2022-10-13T11:24:52;23.27;;;12.90;;
19903;SDS011;10114;50.970;4.962;2022-10-13T11:30:00;18.63;;;10.05;;
19903;SDS011;10114;50.970;4.962;2022-10-13T11:37:47;18.63;;;9.50;;
19903;SDS011;10114;50.970;4.962;2022-10-13T11:40:31;16.95;;;8.50;;
19903;SDS011;10114;50.970;4.962;2022-10-13T11:43:24;22.60;;;9.55;;
19903;SDS011;10114;50.970;4.962;2022-10-13T11:53:24;21.30;;;9.27;;
19903;SDS011;10114;50.970;4.962;2022-10-13T11:55:56;22.88;;;11.77;;
19903;SDS011;10114;50.970;4.962;2022-10-13T11:58:23;19.95;;;10.18;;
19903;SDS011;10114;50.970;4.962;2022-10-13T12:03:29;17.48;;;9.65;;
19903;SDS011;10114;50.970;4.962;2022-10-13T12:05:57;19.95;;;10.38;;
19903;SDS011;10114;50.970;4.962;2022-10-13T12:08:24;20.60;;;10.27;;
19903;SDS011;10114;50.970;4.962;2022-10-13T12:10:51;19.50;;;10.27;;
19903;SDS011;10114;50.970;4.962;2022-10-13T12:13:24;23.80;;;10.32;;
19903;SDS011;10114;50.970;4.962;2022-10-13T12:16:12;25.40;;;10.25;;
19903;SDS011;10114;50.970;4.962;2022-10-13T12:18:38;23.40;;;11.05;;
19903;SDS011;10114;50.970;4.962;2022-10-13T12:23:33;21.90;;;11.27;;
19903;SDS011;10114;50.970;4.962;2022-10-13T12:25:59;24.27;;;12.23;;
19903;SDS011;10114;50.970;4.962;2022-10-13T12:28:30;25.52;;;12.32;;
19903;SDS011;10114;50.970;4.962;2022-10-13T12:31:14;24.00;;;11.43;;
19903;SDS011;10114;50.970;4.962;2022-10-13T12:33:41;23.13;;;12.40;;
19903;SDS011;10114;50.970;4.962;2022-10-13T12:36:11;19.60;;;11.75;;
19903;SDS011;10114;50.970;4.962;2022-10-13T12:38:37;24.52;;;11.48;;
19903;SDS011;10114;50.970;4.962;2022-10-13T12:41:06;22.38;;;12.05;;
19903;SDS011;10114;50.970;4.962;2022-10-13T12:43:33;29.15;;;14.15;;
19903;SDS011;10114;50.970;4.962;2022-10-13T12:45:59;25.13;;;12.05;;
19903;SDS011;10114;50.970;4.962;2022-10-13T12:48:33;24.98;;;11.23;;
19903;SDS011;10114;50.970;4.962;2022-10-13T12:53:35;25.45;;;12.13;;
19903;SDS011;10114;50.970;4.962;2022-10-13T12:56:16;23.02;;;12.02;;
19903;SDS011;10114;50.970;4.962;2022-10-13T12:58:43;25.27;;;12.98;;
19903;SDS011;10114;50.970;4.962;2022-10-13T13:03:38;24.30;;;10.70;;
19903;SDS011;10114;50.970;4.962;2022-10-13T13:06:06;18.05;;;10.02;;
19903;SDS011;10114;50.970;4.962;2022-10-13T13:08:32;23.50;;;10.60;;
19903;SDS011;10114;50.970;4.962;2022-10-13T13:11:02;25.20;;;11.13;;
19903;SDS011;10114;50.970;4.962;2022-10-13T13:13:29;26.27;;;13.05;;
19903;SDS011;10114;50.970;4.962;2022-10-13T13:18:41;18.17;;;10.52;;
19903;SDS011;10114;50.970;4.962;2022-10-13T13:21:11;36.20;;;20.10;;
19903;SDS011;10114;50.970;4.962;2022-10-13T13:23:37;38.20;;;25.63;;
19903;SDS011;10114;50.970;4.962;2022-10-13T13:26:10;20.63;;;12.35;;
19903;SDS011;10114;50.970;4.962;2022-10-13T13:28:38;18.20;;;10.95;;
19903;SDS011;10114;50.970;4.962;2022-10-13T13:31:04;18.17;;;10.02;;
19903;SDS011;10114;50.970;4.962;2022-10-13T13:33:30;16.10;;;9.80;;
19903;SDS011;10114;50.970;4.962;2022-10-13T13:35:56;20.27;;;10.10;;
19903;SDS011;10114;50.970;4.962;2022-10-13T13:38:22;21.50;;;9.80;;
19903;SDS011;10114;50.970;4.962;2022-10-13T13:40:48;22.70;;;9.55;;
19903;SDS011;10114;50.970;4.962;2022-10-13T13:43:14;20.58;;;9.90;;
19903;SDS011;10114;50.970;4.962;2022-10-13T13:45:40;22.25;;;9.98;;
19903;SDS011;10114;50.970;4.962;2022-10-13T13:48:07;17.83;;;8.90;;
19903;SDS011;10114;50.970;4.962;2022-10-13T13:50:34;19.02;;;9.13;;
19903;SDS011;10114;50.970;4.962;2022-10-13T13:53:01;19.13;;;9.32;;
19903;SDS011;10114;50.970;4.962;2022-10-13T13:55:27;23.35;;;9.85;;
19903;SDS011;10114;50.970;4.962;2022-10-13T13:57:54;19.15;;;9.27;;
19903;SDS011;10114;50.970;4.962;2022-10-13T14:00:20;22.88;;;9.63;;
19903;SDS011;10114;50.970;4.962;2022-10-13T14:02:46;19.70;;;9.82;;
19903;SDS011;10114;50.970;4.962;2022-10-13T14:05:12;18.90;;;10.32;;
19903;SDS011;10114;50.970;4.962;2022-10-13T14:07:39;22.85;;;10.52;;
19903;SDS011;10114;50.970;4.962;2022-10-13T14:10:05;16.17;;;9.70;;
19903;SDS011;10114;50.970;4.962;2022-10-13T14:12:32;20.48;;;10.32;;
19903;SDS011;10114;50.970;4.962;2022-10-13T14:14:58;19.67;;;10.73;;
19903;SDS011;10114;50.970;4.962;2022-10-13T14:17:25;23.25;;;10.68;;
19903;SDS011;10114;50.970;4.962;2022-10-13T14:19:51;24.48;;;11.65;;
19903;SDS011;10114;50.970;4.962;2022-10-13T14:22:17;26.73;;;12.02;;
19903;SDS011;10114;50.970;4.962;2022-10-13T14:24:43;22.42;;;11.70;;
19903;SDS011;10114;50.970;4.962;2022-10-13T14:27:09;21.90;;;10.20;;
19903;SDS011;10114;50.970;4.962;2022-10-13T14:29:35;19.42;;;10.32;;
19903;SDS011;10114;50.970;4.962;2022-10-13T14:32:01;20.63;;;11.77;;
19903;SDS011;10114;50.970;4.962;2022-10-13T14:34:28;25.92;;;11.00;;
19903;SDS011;10114;50.970;4.962;2022-10-13T14:36:54;22.88;;;11.73;;
19903;SDS011;10114;50.970;4.962;2022-10-13T14:39:20;22.52;;;10.60;;
19903;SDS011;10114;50.970;4.962;2022-10-13T14:41:46;22.63;;;11.15;;
19903;SDS011;10114;50.970;4.962;2022-10-13T14:44:12;22.15;;;11.30;;
19903;SDS011;10114;50.970;4.962;2022-10-13T14:46:39;27.25;;;12.15;;
19903;SDS011;10114;50.970;4.962;2022-10-13T14:49:05;23.98;;;12.13;;
19903;SDS011;10114;50.970;4.962;2022-10-13T14:51:31;22.15;;;12.98;;
19903;SDS011;10114;50.970;4.962;2022-10-13T14:53:57;21.55;;;12.65;;
19903;SDS011;10114;50.970;4.962;2022-10-13T14:56:26;24.77;;;12.32;;
19903;SDS011;10114;50.970;4.962;2022-10-13T14:58:56;22.05;;;12.70;;
19903;SDS011;10114;50.970;4.962;2022-10-13T15:01:22;20.95;;;11.15;;
19903;SDS011;10114;50.970;4.962;2022-10-13T15:03:48;21.58;;;11.60;;
19903;SDS011;10114;50.970;4.962;2022-10-13T15:06:16;21.08;;;11.50;;
19903;SDS011;10114;50.970;4.962;2022-10-13T15:08:42;23.83;;;12.05;;
19903;SDS011;10114;50.970;4.962;2022-10-13T15:11:09;23.38;;;12.25;;
19903;SDS011;10114;50.970;4.962;2022-10-13T15:13:35;23.73;;;11.88;;
19903;SDS011;10114;50.970;4.962;2022-10-13T15:16:01;23.20;;;12.50;;
19903;SDS011;10114;50.970;4.962;2022-10-13T15:18:29;23.63;;;12.93;;
19903;SDS011;10114;50.970;4.962;2022-10-13T15:20:55;22.95;;;12.90;;
19903;SDS011;10114;50.970;4.962;2022-10-13T15:23:21;22.83;;;12.23;;
19903;SDS011;10114;50.970;4.962;2022-10-13T15:25:48;28.13;;;12.52;;
19903;SDS011;10114;50.970;4.962;2022-10-13T15:28:15;32.42;;;14.07;;
19903;SDS011;10114;50.970;4.962;2022-10-13T15:30:41;22.63;;;13.48;;
19903;SDS011;10114;50.970;4.962;2022-10-13T15:33:07;19.65;;;11.73;;
19903;SDS011;10114;50.970;4.962;2022-10-13T15:35:33;22.13;;;12.10;;
19903;SDS011;10114;50.970;4.962;2022-10-13T15:37:59;26.23;;;12.73;;
19903;SDS011;10114;50.970;4.962;2022-10-13T15:40:25;22.00;;;12.32;;
19903;SDS011;10114;50.970;4.962;2022-10-13T15:42:51;23.58;;;11.95;;
19903;SDS011;10114;50.970;4.962;2022-10-13T15:45:17;21.67;;;11.38;;
19903;SDS011;10114;50.970;4.962;2022-10-13T15:47:43;22.27;;;10.93;;
19903;SDS011;10114;50.970;4.962;2022-10-13T15:50:09;22.33;;;11.52;;
19903;SDS011;10114;50.970;4.962;2022-10-13T15:52:36;22.42;;;11.52;;
19903;SDS011;10114;50.970;4.962;2022-10-13T15:55:03;25.70;;;12.90;;
19903;SDS011;10114;50.970;4.962;2022-10-13T15:57:29;18.08;;;11.32;;
19903;SDS011;10114;50.970;4.962;2022-10-13T15:59:56;22.05;;;11.18;;
19903;SDS011;10114;50.970;4.962;2022-10-13T16:02:22;22.20;;;12.07;;
19903;SDS011;10114;50.970;4.962;2022-10-13T16:04:48;22.35;;;11.15;;
19903;SDS011;10114;50.970;4.962;2022-10-13T16:07:14;21.02;;;11.18;;